createdAt,value
2022-09-14T00:01:26.168Z,18.00
2022-09-14T00:04:03.933Z,18.08
2022-09-14T00:07:17.234Z,18.00
2022-09-14T00:09:48.651Z,18.13
2022-09-14T00:12:42.267Z,18.00
2022-09-14T00:15:34.041Z,18.20
2022-09-14T00:18:18.268Z,17.23
2022-09-14T00:20:50.867Z,18.25
2022-09-14T00:23:27.099Z,17.15
2022-09-14T00:26:04.769Z,18.25
2022-09-14T00:28:50.037Z,16.52
2022-09-14T00:31:24.216Z,17.50
2022-09-14T00:33:56.505Z,18.48
2022-09-14T00:36:58.725Z,17.40
2022-09-14T00:39:30.617Z,17.35
2022-09-14T00:42:02.681Z,18.77
2022-09-14T00:44:35.585Z,16.73
2022-09-14T00:47:27.728Z,18.27
2022-09-14T00:50:01.748Z,17.73
2022-09-14T00:52:36.423Z,17.75
2022-09-14T00:55:12.142Z,17.65
2022-09-14T00:57:51.617Z,16.55
2022-09-14T01:00:30.765Z,17.30
2022-09-14T01:03:03.488Z,17.67
2022-09-14T01:06:15.369Z,18.08
2022-09-14T01:09:23.855Z,17.48
2022-09-14T01:12:21.460Z,17.98
2022-09-14T01:15:13.810Z,17.95
2022-09-14T01:18:09.961Z,17.75
2022-09-14T01:21:11.773Z,17.70
2022-09-14T01:24:18.083Z,16.90
2022-09-14T01:27:21.127Z,18.42
2022-09-14T01:30:04.870Z,16.23
2022-09-14T01:32:54.860Z,18.35
2022-09-14T01:35:48.394Z,17.83
2022-09-14T01:38:34.133Z,17.75
2022-09-14T01:41:31.288Z,17.27
2022-09-14T01:44:40.046Z,16.85
2022-09-14T01:47:22.522Z,16.80
2022-09-14T01:49:59.955Z,17.17
2022-09-14T01:52:55.444Z,17.80
2022-09-14T01:55:55.284Z,17.58
2022-09-14T01:58:46.921Z,16.52
2022-09-14T02:01:27.896Z,18.38
2022-09-14T02:06:41.646Z,16.47
2022-09-14T02:09:15.700Z,16.67
2022-09-14T02:11:47.940Z,18.17
2022-09-14T02:14:18.733Z,16.67
2022-09-14T02:17:09.591Z,17.20
2022-09-14T02:19:46.570Z,17.58
2022-09-14T02:22:23.986Z,17.80
2022-09-14T02:24:56.038Z,16.98
2022-09-14T02:27:27.394Z,17.30
2022-09-14T02:29:59.418Z,17.48
2022-09-14T02:35:55.183Z,17.00
2022-09-14T02:38:34.611Z,16.52
2022-09-14T02:41:14.520Z,17.10
2022-09-14T02:44:37.209Z,17.02
2022-09-14T02:47:28.576Z,17.58
2022-09-14T02:50:26.627Z,16.35
2022-09-14T02:53:11.075Z,16.42
2022-09-14T02:55:46.835Z,16.58
2022-09-14T02:58:17.966Z,16.85
2022-09-14T03:01:10.670Z,16.75
2022-09-14T03:06:28.338Z,16.80
2022-09-14T03:08:59.805Z,17.08
2022-09-14T03:11:30.614Z,16.42
2022-09-14T03:14:04.291Z,16.27
2022-09-14T03:16:55.695Z,16.48
2022-09-14T03:19:26.225Z,16.15
2022-09-14T03:22:00.363Z,16.90
2022-09-14T03:24:32.150Z,15.60
2022-09-14T03:29:49.496Z,16.77
2022-09-14T03:32:19.893Z,16.40
2022-09-14T03:34:50.603Z,15.63
2022-09-14T03:37:21.169Z,16.17
2022-09-14T03:39:51.896Z,16.90
2022-09-14T03:45:14.286Z,16.05
2022-09-14T03:47:45.717Z,16.95
2022-09-14T03:53:22.525Z,15.98
2022-09-14T03:55:53.304Z,16.08
2022-09-14T03:58:24.130Z,16.15
2022-09-14T04:00:56.049Z,15.68
2022-09-14T04:06:34.430Z,15.93
2022-09-14T04:09:05.151Z,16.63
2022-09-14T04:11:55.506Z,16.02
2022-09-14T04:14:27.307Z,16.40
2022-09-14T04:16:58.698Z,16.15
2022-09-14T04:19:29.461Z,16.45
2022-09-14T04:22:02.859Z,17.25
2022-09-14T04:27:48.382Z,16.05
2022-09-14T04:30:26.619Z,16.63
2022-09-14T04:33:20.057Z,15.75
2022-09-14T04:36:11.415Z,16.65
2022-09-14T04:38:43.149Z,15.82
2022-09-14T04:41:18.779Z,16.13
2022-09-14T04:44:09.341Z,16.60
2022-09-14T04:49:46.892Z,15.75
2022-09-14T04:52:23.551Z,16.00
2022-09-14T04:55:15.166Z,15.10
2022-09-14T04:57:47.108Z,16.02
2022-09-14T05:00:23.053Z,15.30
2022-09-14T05:02:55.631Z,16.38
2022-09-14T05:08:21.197Z,15.20
2022-09-14T05:11:01.098Z,15.27
2022-09-14T05:13:34.363Z,15.98
2022-09-14T05:16:26.541Z,15.70
2022-09-14T05:19:04.177Z,14.77
2022-09-14T05:21:40.588Z,16.35
2022-09-14T05:24:21.005Z,15.10
2022-09-14T05:26:59.947Z,15.77
2022-09-14T05:29:54.407Z,16.02
2022-09-14T05:32:28.120Z,16.55
2022-09-14T05:35:00.007Z,16.15
2022-09-14T05:37:52.802Z,16.80
2022-09-14T05:40:25.432Z,16.00
2022-09-14T05:42:57.264Z,15.07
2022-09-14T05:45:34.410Z,15.20
2022-09-14T05:48:28.413Z,15.85
2022-09-14T05:51:27.568Z,16.00
2022-09-14T05:54:02.306Z,15.93
2022-09-14T05:56:36.262Z,16.08
2022-09-14T06:00:07.729Z,15.82
2022-09-14T06:02:48.225Z,16.05
2022-09-14T06:05:21.788Z,16.52
2022-09-14T06:10:45.372Z,15.10
2022-09-14T06:13:17.370Z,15.80
2022-09-14T06:18:36.435Z,15.77
2022-09-14T06:24:38.175Z,15.75
2022-09-14T06:27:12.398Z,15.82
2022-09-14T06:29:45.062Z,15.38
2022-09-14T06:32:19.968Z,15.75
2022-09-14T06:34:52.980Z,15.55
2022-09-14T06:37:26.273Z,15.88
2022-09-14T06:39:59.349Z,15.68
2022-09-14T06:42:32.451Z,16.08
2022-09-14T06:45:06.098Z,15.63
2022-09-14T06:50:43.338Z,15.35
2022-09-14T06:53:16.688Z,15.85
2022-09-14T06:56:08.337Z,15.13
2022-09-14T06:58:40.912Z,14.70
2022-09-14T07:01:19.266Z,15.57
2022-09-14T07:03:53.928Z,16.10
2022-09-14T07:06:28.884Z,15.45
2022-09-14T07:09:01.203Z,15.43
2022-09-14T07:11:34.068Z,15.13
2022-09-14T07:14:07.490Z,15.57
2022-09-14T07:16:41.622Z,15.98
2022-09-14T07:19:16.908Z,15.60
2022-09-14T07:22:08.888Z,15.68
2022-09-14T07:25:00.564Z,15.98
2022-09-14T07:27:32.972Z,15.20
2022-09-14T07:30:05.357Z,15.18
2022-09-14T07:32:37.604Z,14.52
2022-09-14T07:35:29.846Z,15.48
2022-09-14T07:38:02.956Z,15.87
2022-09-14T07:40:35.077Z,15.55
2022-09-14T07:43:08.229Z,14.70
2022-09-14T07:45:46.976Z,14.68
2022-09-14T07:48:19.236Z,14.88
2022-09-14T07:51:01.880Z,15.60
2022-09-14T07:53:34.740Z,14.48
2022-09-14T07:59:31.326Z,14.80
2022-09-14T08:01:53.512Z,14.65
2022-09-14T08:04:25.749Z,15.27
2022-09-14T08:07:17.287Z,14.68
2022-09-14T08:09:50.070Z,15.63
2022-09-14T08:12:22.046Z,14.60
2022-09-14T08:14:55.628Z,14.68
2022-09-14T08:17:27.321Z,14.40
2022-09-14T08:20:18.577Z,14.80
2022-09-14T08:22:50.614Z,14.80
2022-09-14T08:25:24.812Z,14.77
2022-09-14T08:27:57.226Z,14.68
2022-09-14T08:30:28.827Z,14.77
2022-09-14T08:33:01.849Z,15.07
2022-09-14T08:35:57.708Z,14.70
2022-09-14T08:38:30.020Z,15.48
2022-09-14T08:41:09.421Z,14.30
2022-09-14T08:43:43.812Z,14.32
2022-09-14T08:46:33.817Z,13.80
2022-09-14T08:49:12.072Z,15.70
2022-09-14T08:54:50.296Z,14.43
2022-09-14T08:57:46.429Z,13.85
2022-09-14T09:00:29.274Z,14.68
2022-09-14T09:03:03.723Z,15.15
2022-09-14T09:05:48.680Z,13.65
2022-09-14T09:08:30.422Z,13.65
2022-09-14T09:11:04.145Z,15.32
2022-09-14T09:16:13.471Z,14.48
2022-09-14T09:18:49.442Z,14.00
2022-09-14T09:21:28.108Z,13.88
2022-09-14T09:24:22.707Z,14.43
2022-09-14T09:27:13.792Z,14.70
2022-09-14T09:30:06.861Z,14.60
2022-09-14T09:32:41.847Z,13.75
2022-09-14T09:35:37.743Z,14.07
2022-09-14T09:38:29.162Z,13.70
2022-09-14T09:41:14.531Z,14.32
2022-09-14T09:44:08.390Z,13.73
2022-09-14T09:47:03.949Z,14.70
2022-09-14T09:49:43.484Z,13.52
2022-09-14T09:52:19.123Z,13.85
2022-09-14T09:54:57.173Z,13.20
2022-09-14T09:57:38.212Z,13.73
2022-09-14T10:00:27.793Z,13.63
2022-09-14T10:03:05.676Z,13.50
2022-09-14T10:06:06.801Z,14.32
2022-09-14T10:08:49.156Z,13.80
2022-09-14T10:11:33.659Z,14.38
2022-09-14T10:14:07.795Z,13.50
2022-09-14T10:16:44.100Z,14.07
2022-09-14T10:19:17.923Z,14.23
2022-09-14T10:22:30.294Z,13.15
2022-09-14T10:28:08.399Z,14.50
2022-09-14T10:31:22.697Z,12.55
2022-09-14T10:34:00.971Z,14.27
2022-09-14T10:37:17.428Z,13.25
2022-09-14T10:40:38.355Z,13.00
2022-09-14T10:43:20.558Z,14.10
2022-09-14T10:46:02.979Z,13.38
2022-09-14T10:49:34.245Z,13.68
2022-09-14T10:52:53.703Z,13.85
2022-09-14T10:55:45.133Z,14.25
2022-09-14T10:58:50.040Z,14.15
2022-09-14T11:01:36.962Z,14.30
2022-09-14T11:04:27.462Z,14.82
2022-09-14T11:07:21.045Z,13.65
2022-09-14T11:10:22.563Z,14.27
2022-09-14T11:13:34.613Z,14.15
2022-09-14T11:16:33.459Z,14.95
2022-09-14T11:19:28.570Z,13.73
2022-09-14T11:22:37.742Z,14.38
2022-09-14T11:25:19.862Z,15.25
2022-09-14T11:28:46.813Z,14.63
2022-09-14T11:31:31.341Z,14.00
2022-09-14T11:34:21.326Z,14.90
2022-09-14T11:37:28.120Z,15.00
2022-09-14T11:40:28.356Z,14.65
2022-09-14T11:43:48.587Z,14.48
2022-09-14T11:47:00.926Z,14.02
2022-09-14T11:49:45.186Z,13.30
2022-09-14T11:52:31.605Z,13.90
2022-09-14T11:55:26.269Z,13.75
2022-09-14T11:58:01.973Z,14.45
2022-09-14T12:00:47.318Z,14.30
2022-09-14T12:03:28.343Z,13.63
2022-09-14T12:06:34.032Z,14.45
2022-09-14T12:09:36.312Z,15.88
2022-09-14T12:15:32.765Z,15.45
2022-09-14T12:18:13.572Z,18.15
2022-09-14T12:21:21.740Z,18.15
2022-09-14T12:23:59.516Z,17.55
2022-09-14T12:26:38.113Z,16.65
2022-09-14T12:29:33.906Z,17.05
2022-09-14T12:32:08.466Z,16.45
2022-09-14T12:34:44.932Z,17.10
2022-09-14T12:37:37.895Z,17.13
2022-09-14T12:41:00.089Z,18.27
2022-09-14T12:44:18.138Z,17.85
2022-09-14T12:47:10.860Z,20.10
2022-09-14T12:50:20.418Z,19.02
2022-09-14T12:53:31.071Z,19.95
2022-09-14T12:56:15.245Z,19.90
2022-09-14T12:59:18.775Z,21.02
2022-09-14T13:02:22.160Z,21.08
2022-09-14T13:05:21.433Z,21.80
2022-09-14T13:07:57.015Z,20.48
2022-09-14T13:11:00.502Z,20.15
2022-09-14T13:13:38.097Z,19.85
2022-09-14T13:17:06.914Z,19.92
2022-09-14T13:19:43.114Z,18.17
2022-09-14T13:23:08.646Z,18.63
2022-09-14T13:25:42.016Z,17.95
2022-09-14T13:28:21.996Z,18.40
2022-09-14T13:31:03.053Z,18.73
2022-09-14T13:33:38.740Z,18.58
2022-09-14T13:36:12.103Z,18.00
2022-09-14T13:38:45.814Z,19.17
2022-09-14T13:41:45.090Z,19.10
2022-09-14T13:44:39.137Z,17.80
2022-09-14T13:47:15.276Z,18.08
2022-09-14T13:50:09.174Z,19.10
2022-09-14T13:55:37.355Z,18.65
2022-09-14T13:58:15.052Z,21.13
2022-09-14T14:01:07.814Z,20.15
2022-09-14T14:06:40.131Z,18.85
2022-09-14T14:09:13.827Z,19.30
2022-09-14T14:11:56.941Z,20.80
2022-09-14T14:14:31.693Z,20.33
2022-09-14T14:17:39.315Z,18.90
2022-09-14T14:20:34.642Z,20.00
2022-09-14T14:24:09.290Z,17.95
2022-09-14T14:26:38.767Z,19.13
2022-09-14T14:29:54.107Z,18.20
2022-09-14T14:32:34.980Z,18.27
2022-09-14T14:35:34.171Z,19.25
2022-09-14T14:38:07.158Z,19.80
2022-09-14T14:41:09.063Z,18.60
2022-09-14T14:44:01.763Z,18.67
2022-09-14T14:46:34.975Z,19.38
2022-09-14T14:49:08.484Z,18.83
2022-09-14T14:51:42.877Z,17.33
2022-09-14T14:54:36.423Z,16.55
2022-09-14T15:00:01.995Z,17.65
2022-09-14T15:02:38.193Z,17.27
2022-09-14T15:05:33.214Z,17.15
2022-09-14T15:08:07.574Z,17.10
2022-09-14T15:10:41.771Z,17.42
2022-09-14T15:13:35.240Z,18.48
2022-09-14T15:16:34.415Z,17.60
2022-09-14T15:19:07.012Z,17.52
2022-09-14T15:21:44.091Z,16.10
2022-09-14T15:24:38.384Z,17.30
2022-09-14T15:27:12.449Z,17.48
2022-09-14T15:29:45.447Z,18.38
2022-09-14T15:32:17.892Z,17.00
2022-09-14T15:34:52.245Z,16.63
2022-09-14T15:37:44.960Z,17.35
2022-09-14T15:40:20.122Z,16.08
2022-09-14T15:42:56.517Z,17.42
2022-09-14T15:45:30.345Z,17.10
2022-09-14T15:48:27.890Z,15.98
2022-09-14T15:51:27.709Z,16.30
2022-09-14T15:54:01.296Z,16.63
2022-09-14T15:57:07.183Z,15.95
2022-09-14T15:59:41.761Z,15.98
2022-09-14T16:02:18.675Z,15.70
2022-09-14T16:04:52.504Z,15.98
2022-09-14T16:07:50.063Z,14.88
2022-09-14T16:10:26.025Z,15.38
2022-09-14T16:13:23.574Z,16.02
2022-09-14T16:16:07.151Z,16.25
2022-09-14T16:19:07.457Z,16.02
2022-09-14T16:21:42.119Z,16.02
2022-09-14T16:24:42.495Z,16.20
2022-09-14T16:27:39.037Z,14.88
2022-09-14T16:30:32.519Z,15.25
2022-09-14T16:33:06.845Z,16.05
2022-09-14T16:35:39.779Z,15.60
2022-09-14T16:38:38.346Z,15.38
2022-09-14T16:41:17.449Z,15.50
2022-09-14T16:44:09.414Z,16.85
2022-09-14T16:46:42.278Z,14.90
2022-09-14T16:49:37.120Z,15.77
2022-09-14T16:52:12.191Z,16.10
2022-09-14T16:54:45.783Z,15.48
2022-09-14T16:59:50.658Z,15.38
2022-09-14T17:02:23.690Z,16.58
2022-09-14T17:04:55.930Z,15.10
2022-09-14T17:07:35.469Z,15.63
2022-09-14T17:10:12.831Z,14.30
2022-09-14T17:13:02.359Z,15.38
2022-09-14T17:15:35.954Z,15.15
2022-09-14T17:18:10.065Z,14.85
2022-09-14T17:20:43.811Z,15.52
2022-09-14T17:23:36.226Z,15.65
2022-09-14T17:26:13.267Z,15.25
2022-09-14T17:28:51.462Z,16.65
2022-09-14T17:31:46.225Z,14.73
2022-09-14T17:34:39.973Z,15.15
2022-09-14T17:37:11.680Z,15.23
2022-09-14T17:39:44.319Z,16.50
2022-09-14T17:42:16.108Z,15.50
2022-09-14T17:44:53.642Z,14.68
2022-09-14T17:47:27.759Z,15.32
2022-09-14T17:50:03.056Z,13.63
2022-09-14T17:52:36.326Z,13.80
2022-09-14T17:57:43.968Z,14.18
2022-09-14T18:01:03.943Z,14.40
2022-09-14T18:03:40.537Z,14.60
2022-09-14T18:06:14.966Z,16.15
2022-09-14T18:08:46.444Z,14.80
2022-09-14T18:11:21.116Z,15.32
2022-09-14T18:13:53.597Z,14.10
2022-09-14T18:16:27.840Z,14.63
2022-09-14T18:18:59.913Z,14.88
2022-09-14T18:21:33.180Z,15.13
2022-09-14T18:24:05.220Z,15.05
2022-09-14T18:26:36.918Z,14.45
2022-09-14T18:29:08.556Z,15.77
2022-09-14T18:31:40.685Z,14.98
2022-09-14T18:34:23.494Z,13.77
2022-09-14T18:36:55.176Z,15.75
2022-09-14T18:39:26.470Z,14.32
2022-09-14T18:41:57.898Z,15.75
2022-09-14T18:44:55.521Z,14.88
2022-09-14T18:47:26.609Z,14.30
2022-09-14T18:49:57.656Z,14.40
2022-09-14T18:52:29.710Z,15.02
2022-09-14T18:55:40.574Z,14.90
2022-09-14T18:58:38.403Z,14.07
2022-09-14T19:01:11.113Z,13.70
2022-09-14T19:03:44.260Z,13.45
2022-09-14T19:07:14.495Z,13.88
2022-09-14T19:09:45.718Z,13.68
2022-09-14T19:12:17.081Z,13.70
2022-09-14T19:14:47.788Z,14.68
2022-09-14T19:17:23.679Z,13.32
2022-09-14T19:20:24.483Z,13.52
2022-09-14T19:22:57.769Z,14.32
2022-09-14T19:25:28.814Z,14.35
2022-09-14T19:28:04.945Z,13.93
2022-09-14T19:31:02.012Z,14.52
2022-09-14T19:33:33.972Z,13.68
2022-09-14T19:36:11.311Z,13.07
2022-09-14T19:38:44.158Z,14.43
2022-09-14T19:41:15.395Z,13.25
2022-09-14T19:43:46.927Z,13.65
2022-09-14T19:46:20.668Z,14.57
2022-09-14T19:48:57.261Z,13.57
2022-09-14T19:51:32.523Z,14.05
2022-09-14T19:54:04.302Z,13.07
2022-09-14T19:56:37.348Z,14.52
2022-09-14T19:59:31.649Z,13.80
2022-09-14T20:02:02.874Z,12.23
2022-09-14T20:04:53.681Z,13.27
2022-09-14T20:07:44.320Z,13.63
2022-09-14T20:10:15.404Z,14.15
2022-09-14T20:12:47.825Z,14.20
2022-09-14T20:15:19.066Z,13.70
2022-09-14T20:18:32.093Z,13.73
2022-09-14T20:21:03.137Z,14.15
2022-09-14T20:23:34.743Z,12.93
2022-09-14T20:26:27.618Z,13.93
2022-09-14T20:29:02.027Z,13.70
2022-09-14T20:31:33.984Z,13.57
2022-09-14T20:34:05.917Z,13.43
2022-09-14T20:36:38.513Z,13.52
2022-09-14T20:39:09.936Z,13.27
2022-09-14T20:41:42.377Z,13.52
2022-09-14T20:44:15.104Z,13.43
2022-09-14T20:46:48.507Z,13.63
2022-09-14T20:49:23.513Z,13.05
2022-09-14T20:51:55.753Z,13.25
2022-09-14T20:54:26.997Z,13.05
2022-09-14T20:57:02.213Z,13.63
2022-09-14T21:02:21.232Z,13.48
2022-09-14T21:04:52.461Z,14.25
2022-09-14T21:07:23.707Z,13.50
2022-09-14T21:09:54.880Z,13.75
2022-09-14T21:12:28.099Z,14.15
2022-09-14T21:14:59.402Z,12.95
2022-09-14T21:17:35.894Z,12.90
2022-09-14T21:20:07.497Z,13.43
2022-09-14T21:23:18.822Z,13.68
2022-09-14T21:25:58.191Z,14.10
2022-09-14T21:28:30.681Z,13.82
2022-09-14T21:31:14.687Z,13.15
2022-09-14T21:33:48.622Z,12.93
2022-09-14T21:39:14.430Z,12.80
2022-09-14T21:41:46.406Z,13.52
2022-09-14T21:44:18.344Z,12.90
2022-09-14T21:47:09.356Z,13.50
2022-09-14T21:50:00.839Z,13.18
2022-09-14T21:52:32.779Z,14.50
2022-09-14T21:55:04.623Z,14.50
2022-09-14T21:57:36.976Z,13.70
2022-09-14T22:00:11.545Z,13.38
2022-09-14T22:02:42.828Z,12.75
2022-09-14T22:05:14.048Z,13.63
2022-09-14T22:07:45.538Z,13.55
2022-09-14T22:10:21.829Z,13.07
2022-09-14T22:12:52.724Z,13.20
2022-09-14T22:15:25.362Z,12.40
2022-09-14T22:17:58.383Z,13.35
2022-09-14T22:20:33.612Z,12.90
2022-09-14T22:23:05.021Z,13.25
2022-09-14T22:28:47.363Z,13.90
2022-09-14T22:31:20.319Z,11.98
2022-09-14T22:33:53.486Z,13.37
2022-09-14T22:36:25.786Z,13.20
2022-09-14T22:39:01.045Z,13.05
2022-09-14T22:41:32.676Z,13.25
2022-09-14T22:44:04.531Z,13.43
2022-09-14T22:46:38.849Z,14.02
2022-09-14T22:49:10.473Z,13.07
2022-09-14T22:51:45.694Z,13.30
2022-09-14T22:54:38.206Z,13.50
2022-09-14T22:57:09.408Z,13.63
2022-09-14T22:59:40.637Z,13.05
2022-09-14T23:04:57.480Z,13.52
2022-09-14T23:07:30.255Z,13.20
2022-09-14T23:10:21.484Z,13.98
2022-09-14T23:12:52.696Z,13.13
2022-09-14T23:15:44.481Z,12.13
2022-09-14T23:18:21.076Z,13.25
2022-09-14T23:20:52.218Z,14.05
2022-09-14T23:23:23.169Z,13.70
2022-09-14T23:25:54.376Z,13.82
2022-09-14T23:28:25.450Z,13.68
2022-09-14T23:30:56.569Z,13.55
2022-09-14T23:33:28.650Z,12.75
2022-09-14T23:35:59.921Z,13.13
2022-09-14T23:38:30.934Z,13.55
2022-09-14T23:41:03.715Z,13.25
2022-09-14T23:43:34.835Z,13.77
2022-09-14T23:46:06.139Z,13.48
2022-09-14T23:48:37.738Z,13.48
2022-09-14T23:51:12.391Z,13.40
2022-09-14T23:53:47.623Z,14.05
2022-09-14T23:56:19.178Z,13.85
2022-09-14T23:58:50.683Z,13.90
